Whitchurch-Stouffville, Canada
Current Conditions -  °F | °C
As of 4:00 AM on Wednesday 28 Jan 2015 (Local Time) from CYKZ Reporting Station
Clear Clear  
Wind Chill: -1°   Ceiling: Unl
Heat Index:   Visibility: 15mi
Dew Point: -4°   Wind: 6mph
Humidity: 57%   Direction: 340°NNW
Pressure: 30.16"   Gusts: NA
Location:  43.97°N, 79.25°W
Report Text: CYKZ 280900Z 34005KT 15SM SKC M13/M20 A3016 RMK SLP227
Loading
Personal Weather Stations






























Interactive Weather Map New forecast layout! Learn more

10-Day Weather Forecast

Advertisements
Track Severe Weather on mobile